Time;durP1;ratioP1;P1;durP2;ratioP2;P2;SDS_P1;SDS_P2;PMS_P1;PMS_P2;Temp;Humidity;BMP_temperature;BMP_pressure;BME280_temperature;BME280_humidity;BME280_pressure;Samples;Min_cycle;Max_cycle;Signal;HPM_P1;HPM_P2
2023/08/02 00:01:26;;;;;;;;;;;15.40;99.90;;;;;;5027595;28;19976;-81
2023/08/02 00:03:53;;;;;;;;;;;15.40;99.90;;;;;;5035137;28;20364;-82
2023/08/02 00:06:21;;;;;;;;;;;15.40;99.90;;;;;;5050448;28;19940;-82
2023/08/02 00:08:56;;;;;;;;;;;15.40;99.90;;;;;;5056371;28;19970;-82
2023/08/02 00:11:22;;;;;;;;;;;15.40;99.90;;;;;;5018960;28;20294;-82
2023/08/02 00:13:53;;;;;;;;;;;15.40;99.90;;;;;;5034722;28;19987;-81
2023/08/02 00:16:19;;;;;;;;;;;15.40;99.90;;;;;;5020623;28;19969;-82
2023/08/02 00:18:45;;;;;;;;;;;15.40;99.90;;;;;;5026692;28;19925;-82
2023/08/02 00:21:13;;;;;;;;;;;15.40;99.90;;;;;;5066763;28;19929;-81
2023/08/02 00:23:39;;;;;;;;;;;15.40;99.90;;;;;;5001083;28;20313;-81
2023/08/02 00:26:06;;;;;;;;;;;15.40;99.90;;;;;;5033505;28;20482;-81
2023/08/02 00:28:35;;;;;;;;;;;15.40;99.90;;;;;;5055942;28;19925;-81
2023/08/02 00:31:00;;;;;;;;;;;15.40;99.90;;;;;;5035825;28;19948;-81
2023/08/02 00:33:29;;;;;;;;;;;15.30;99.90;;;;;;5001114;28;19929;-81
2023/08/02 00:35:54;;;;;;;;;;;15.30;99.90;;;;;;5020667;28;19933;-82
2023/08/02 00:38:23;;;;;;;;;;;15.30;99.90;;;;;;5036001;28;19929;-81
2023/08/02 00:41:00;;;;;;;;;;;15.40;99.90;;;;;;5034047;28;20233;-81
2023/08/02 00:43:44;;;;;;;;;;;15.40;99.90;;;;;;5034577;28;19932;-81
2023/08/02 00:46:12;;;;;;;;;;;15.40;99.90;;;;;;5029299;28;19925;-81
2023/08/02 00:48:46;;;;;;;;;;;15.40;99.90;;;;;;5024431;28;19967;-81
2023/08/02 00:51:15;;;;;;;;;;;15.40;99.90;;;;;;5039604;28;19925;-81
2023/08/02 00:53:44;;;;;;;;;;;15.50;99.90;;;;;;5039375;28;20458;-81
2023/08/02 00:56:10;;;;;;;;;;;15.50;99.90;;;;;;5038696;28;19943;-81
2023/08/02 00:58:36;;;;;;;;;;;15.40;99.90;;;;;;5031758;28;19933;-81
2023/08/02 01:01:07;;;;;;;;;;;15.50;99.90;;;;;;5049636;28;20960;-82
2023/08/02 01:03:36;;;;;;;;;;;15.50;99.90;;;;;;5025596;28;19924;-81
2023/08/02 01:06:09;;;;;;;;;;;15.50;99.90;;;;;;5067624;28;19997;-81
2023/08/02 01:08:38;;;;;;;;;;;15.50;99.90;;;;;;5023057;28;19951;-80
2023/08/02 01:11:24;;;;;;;;;;;15.50;99.90;;;;;;5044946;28;20004;-81
2023/08/02 01:13:53;;;;;;;;;;;15.50;99.90;;;;;;5038445;28;20006;-81
2023/08/02 01:16:19;;;;;;;;;;;15.50;99.90;;;;;;5021154;28;19936;-81
2023/08/02 01:18:45;;;;;;;;;;;15.50;99.90;;;;;;5045433;28;20011;-81
2023/08/02 01:21:10;;;;;;;;;;;15.50;99.90;;;;;;5025022;28;20422;-81
2023/08/02 01:23:36;;;;;;;;;;;15.50;99.90;;;;;;5021730;28;19926;-81
2023/08/02 01:26:04;;;;;;;;;;;15.50;99.90;;;;;;5038954;28;19933;-81
2023/08/02 01:28:32;;;;;;;;;;;15.50;99.90;;;;;;5053707;28;19932;-81
2023/08/02 01:31:00;;;;;;;;;;;15.50;99.90;;;;;;5070219;28;19929;-82
2023/08/02 01:33:26;;;;;;;;;;;15.50;99.90;;;;;;5020795;28;20041;-81
2023/08/02 01:35:57;;;;;;;;;;;15.50;99.90;;;;;;5037429;28;19949;-81
2023/08/02 01:38:23;;;;;;;;;;;15.40;99.90;;;;;;5022100;28;19929;-81
2023/08/02 01:40:52;;;;;;;;;;;15.50;99.90;;;;;;5045822;28;20479;-82
2023/08/02 01:43:18;;;;;;;;;;;15.50;99.90;;;;;;5037753;28;19967;-81
2023/08/02 01:45:45;;;;;;;;;;;15.40;99.90;;;;;;5020123;28;20365;-82
2023/08/02 01:48:16;;;;;;;;;;;15.40;99.90;;;;;;5037244;28;20023;-82
2023/08/02 01:50:43;;;;;;;;;;;15.40;99.90;;;;;;5018061;28;19968;-82
2023/08/02 01:53:10;;;;;;;;;;;15.50;99.90;;;;;;5021323;28;19937;-82
2023/08/02 01:55:36;;;;;;;;;;;15.40;99.90;;;;;;5025811;28;19925;-81
2023/08/02 01:58:08;;;;;;;;;;;15.50;99.90;;;;;;5046942;28;19932;-82
2023/08/02 02:00:34;;;;;;;;;;;15.50;99.90;;;;;;5034313;28;19933;-82
2023/08/02 02:03:06;;;;;;;;;;;15.40;99.90;;;;;;5026331;28;19940;-82
2023/08/02 02:05:32;;;;;;;;;;;15.40;99.90;;;;;;5042322;28;19932;-82
2023/08/02 02:07:57;;;;;;;;;;;15.40;99.90;;;;;;5030113;28;19929;-81
2023/08/02 02:10:26;;;;;;;;;;;15.40;99.90;;;;;;5036851;28;20265;-82
2023/08/02 02:12:52;;;;;;;;;;;15.40;99.90;;;;;;5021654;28;19925;-81
2023/08/02 02:15:18;;;;;;;;;;;15.40;99.90;;;;;;5019785;28;20000;-81
2023/08/02 02:17:44;;;;;;;;;;;15.30;99.90;;;;;;5022148;28;19984;-81
2023/08/02 02:20:10;;;;;;;;;;;15.40;99.90;;;;;;5043106;28;19940;-81
2023/08/02 02:22:38;;;;;;;;;;;15.40;99.90;;;;;;5050157;28;19932;-81
2023/08/02 02:25:07;;;;;;;;;;;15.40;99.90;;;;;;5034760;28;19929;-81
2023/08/02 02:27:32;;;;;;;;;;;15.30;99.90;;;;;;5022673;28;19956;-81
2023/08/02 02:29:58;;;;;;;;;;;15.30;99.90;;;;;;5026993;28;19992;-81
2023/08/02 02:32:30;;;;;;;;;;;15.30;99.90;;;;;;5025282;28;20020;-82
2023/08/02 02:34:56;;;;;;;;;;;15.30;99.90;;;;;;5044326;28;19929;-81
2023/08/02 02:37:23;;;;;;;;;;;15.30;99.90;;;;;;5041417;28;19925;-81
2023/08/02 02:39:48;;;;;;;;;;;15.30;99.90;;;;;;5033954;28;20073;-82
2023/08/02 02:42:14;;;;;;;;;;;15.30;99.90;;;;;;5015079;28;19980;-81
2023/08/02 02:44:41;;;;;;;;;;;15.30;99.90;;;;;;5020507;28;19960;-81
2023/08/02 02:47:07;;;;;;;;;;;15.20;99.90;;;;;;5025221;28;20143;-81
2023/08/02 02:49:39;;;;;;;;;;;15.20;99.90;;;;;;5045620;28;20008;-80
2023/08/02 02:52:05;;;;;;;;;;;15.20;99.90;;;;;;5026947;28;19929;-82
2023/08/02 02:54:31;;;;;;;;;;;15.20;99.90;;;;;;5013445;28;20011;-81
2023/08/02 02:56:57;;;;;;;;;;;15.20;99.90;;;;;;5019801;28;19929;-81
2023/08/02 02:59:30;;;;;;;;;;;15.10;99.90;;;;;;5035521;28;20004;-81
2023/08/02 03:01:59;;;;;;;;;;;15.10;99.90;;;;;;5023083;28;20341;-81
2023/08/02 03:04:28;;;;;;;;;;;15.10;99.90;;;;;;5032328;28;19930;-81
2023/08/02 03:07:00;;;;;;;;;;;15.10;99.90;;;;;;5022005;28;20299;-81
2023/08/02 03:09:32;;;;;;;;;;;15.00;99.90;;;;;;5019106;28;19984;-81
2023/08/02 03:11:59;;;;;;;;;;;15.00;99.90;;;;;;5019437;28;19928;-81
2023/08/02 03:14:25;;;;;;;;;;;15.00;99.90;;;;;;5003127;28;19929;-81
2023/08/02 03:16:51;;;;;;;;;;;14.90;99.90;;;;;;5048517;28;19925;-80
2023/08/02 03:19:16;;;;;;;;;;;14.90;99.90;;;;;;5006912;28;19925;-81
2023/08/02 03:21:48;;;;;;;;;;;14.80;99.90;;;;;;5023650;28;19952;-80
2023/08/02 03:24:13;;;;;;;;;;;14.80;99.90;;;;;;5037424;28;19929;-81
2023/08/02 03:26:41;;;;;;;;;;;14.80;99.90;;;;;;5038964;28;19956;-81
2023/08/02 03:29:10;;;;;;;;;;;14.70;99.90;;;;;;5033083;28;19951;-81
2023/08/02 03:31:36;;;;;;;;;;;14.70;99.90;;;;;;5034209;28;20684;-82
2023/08/02 03:34:09;;;;;;;;;;;14.60;99.90;;;;;;5029240;28;19951;-81
2023/08/02 03:36:34;;;;;;;;;;;14.60;99.90;;;;;;4998743;28;19959;-81
2023/08/02 03:39:01;;;;;;;;;;;14.60;99.90;;;;;;5030872;28;19929;-81
2023/08/02 03:41:31;;;;;;;;;;;14.60;99.90;;;;;;5030537;28;19929;-81
2023/08/02 03:44:03;;;;;;;;;;;14.50;99.90;;;;;;5042056;28;20011;-81
2023/08/02 03:46:30;;;;;;;;;;;14.60;99.90;;;;;;5030966;28;19980;-81
2023/08/02 03:48:59;;;;;;;;;;;14.50;99.90;;;;;;5031208;28;20098;-81
2023/08/02 03:51:27;;;;;;;;;;;14.50;99.90;;;;;;5014098;28;19985;-81
2023/08/02 03:54:00;;;;;;;;;;;14.50;99.90;;;;;;5028548;28;19939;-81
2023/08/02 03:56:28;;;;;;;;;;;14.50;99.90;;;;;;5013370;28;19929;-81
2023/08/02 03:58:54;;;;;;;;;;;14.50;99.90;;;;;;5014519;28;20016;-81
2023/08/02 04:01:20;;;;;;;;;;;14.50;99.90;;;;;;5015518;28;19925;-81
2023/08/02 04:03:54;;;;;;;;;;;14.50;99.90;;;;;;5016662;28;20304;-81
2023/08/02 04:06:20;;;;;;;;;;;14.50;99.90;;;;;;5033936;28;19985;-81
2023/08/02 04:08:46;;;;;;;;;;;14.50;99.90;;;;;;5050549;28;19964;-81
2023/08/02 04:11:18;;;;;;;;;;;14.50;99.90;;;;;;5001087;28;19939;-81
2023/08/02 04:13:51;;;;;;;;;;;14.40;99.90;;;;;;5048404;28;19940;-81
2023/08/02 04:16:17;;;;;;;;;;;14.40;99.90;;;;;;5031499;28;19935;-81
2023/08/02 04:18:43;;;;;;;;;;;14.40;99.90;;;;;;5014904;28;19929;-81
2023/08/02 04:21:19;;;;;;;;;;;14.40;99.90;;;;;;5046054;28;19929;-81
2023/08/02 04:23:47;;;;;;;;;;;14.40;99.90;;;;;;5010428;28;19936;-81
2023/08/02 04:26:13;;;;;;;;;;;14.30;99.90;;;;;;5017375;28;20027;-81
2023/08/02 04:28:39;;;;;;;;;;;14.40;99.90;;;;;;4998934;28;20423;-81
2023/08/02 04:31:12;;;;;;;;;;;14.40;99.90;;;;;;5029435;28;19936;-81
2023/08/02 04:33:38;;;;;;;;;;;14.40;99.90;;;;;;5006940;28;20012;-81
2023/08/02 04:36:09;;;;;;;;;;;14.40;99.90;;;;;;5024614;28;20009;-81
2023/08/02 04:38:35;;;;;;;;;;;14.40;99.90;;;;;;5004247;28;19925;-81
2023/08/02 04:41:04;;;;;;;;;;;14.40;99.90;;;;;;5018391;28;19994;-81
2023/08/02 04:43:30;;;;;;;;;;;14.40;99.90;;;;;;4999705;28;19947;-81
2023/08/02 04:45:56;;;;;;;;;;;14.40;99.90;;;;;;5014876;28;19929;-81
2023/08/02 04:48:22;;;;;;;;;;;14.40;99.90;;;;;;5050091;28;19984;-81
2023/08/02 04:50:48;;;;;;;;;;;14.50;99.90;;;;;;5020421;28;20019;-81
2023/08/02 04:53:14;;;;;;;;;;;14.50;99.90;;;;;;5034550;28;19936;-81
2023/08/02 04:55:40;;;;;;;;;;;14.50;99.90;;;;;;5017819;28;19929;-81
2023/08/02 04:58:08;;;;;;;;;;;14.50;99.90;;;;;;5034007;28;20404;-81
2023/08/02 05:00:37;;;;;;;;;;;14.50;99.90;;;;;;5040440;28;19972;-81
2023/08/02 05:03:02;;;;;;;;;;;14.50;99.90;;;;;;5023595;28;20528;-81
2023/08/02 05:05:31;;;;;;;;;;;14.50;99.90;;;;;;5015141;28;19929;-81
2023/08/02 05:07:58;;;;;;;;;;;14.50;99.90;;;;;;5035051;28;19933;-81
2023/08/02 05:10:25;;;;;;;;;;;14.50;99.90;;;;;;5019052;28;19956;-81
2023/08/02 05:12:53;;;;;;;;;;;14.60;99.90;;;;;;5037799;28;19924;-81
2023/08/02 05:15:19;;;;;;;;;;;14.60;99.90;;;;;;5049183;28;19929;-81
2023/08/02 05:17:45;;;;;;;;;;;14.70;99.90;;;;;;5016775;28;19959;-81
2023/08/02 05:20:11;;;;;;;;;;;14.70;99.90;;;;;;5018350;28;19929;-80
2023/08/02 05:22:42;;;;;;;;;;;14.70;99.90;;;;;;5037393;28;19970;-81
2023/08/02 05:25:11;;;;;;;;;;;14.80;99.90;;;;;;5031611;28;19925;-81
2023/08/02 05:27:37;;;;;;;;;;;14.80;99.90;;;;;;5015751;28;19997;-81
2023/08/02 05:30:09;;;;;;;;;;;14.80;99.90;;;;;;5018907;28;19933;-81
2023/08/02 05:32:40;;;;;;;;;;;14.90;99.90;;;;;;5002303;28;19936;-81
2023/08/02 05:35:06;;;;;;;;;;;15.10;99.90;;;;;;5005131;28;19988;-81
2023/08/02 05:37:40;;;;;;;;;;;15.40;99.90;;;;;;5043129;28;19964;-81
2023/08/02 05:40:12;;;;;;;;;;;15.60;99.90;;;;;;5031260;28;19940;-81
2023/08/02 05:42:38;;;;;;;;;;;15.70;99.90;;;;;;5028259;28;20444;-81
2023/08/02 05:45:04;;;;;;;;;;;15.80;99.90;;;;;;5022543;28;19980;-81
2023/08/02 05:47:30;;;;;;;;;;;16.10;99.90;;;;;;5020053;28;19948;-82
2023/08/02 05:49:56;;;;;;;;;;;16.20;99.90;;;;;;5005424;28;19977;-81
2023/08/02 05:52:25;;;;;;;;;;;16.20;99.90;;;;;;5039796;28;20436;-81
2023/08/02 05:55:00;;;;;;;;;;;16.20;99.90;;;;;;5050578;28;19987;-81
2023/08/02 05:57:28;;;;;;;;;;;16.30;99.90;;;;;;5025957;28;19925;-81
2023/08/02 05:59:57;;;;;;;;;;;16.40;99.90;;;;;;5034271;28;19936;-81
2023/08/02 06:02:23;;;;;;;;;;;16.40;99.90;;;;;;5023606;28;19940;-81
2023/08/02 06:04:49;;;;;;;;;;;16.40;99.90;;;;;;5032168;28;19929;-81
2023/08/02 06:07:16;;;;;;;;;;;16.50;99.90;;;;;;5022907;28;19978;-81
2023/08/02 06:09:41;;;;;;;;;;;16.50;99.90;;;;;;5019442;28;20690;-82
2023/08/02 06:12:07;;;;;;;;;;;16.50;99.90;;;;;;5003582;28;19936;-81
2023/08/02 06:14:33;;;;;;;;;;;16.60;99.90;;;;;;5001019;28;19929;-80
2023/08/02 06:16:59;;;;;;;;;;;16.60;99.90;;;;;;5022069;28;19960;-80
2023/08/02 06:19:26;;;;;;;;;;;16.50;99.90;;;;;;5022995;28;19932;-81
2023/08/02 06:21:51;;;;;;;;;;;16.50;99.90;;;;;;5002861;28;19925;-80
2023/08/02 06:24:23;;;;;;;;;;;16.40;99.90;;;;;;5020013;28;19940;-80
2023/08/02 06:26:49;;;;;;;;;;;16.40;99.90;;;;;;5033890;28;20300;-80
2023/08/02 06:29:15;;;;;;;;;;;16.40;99.90;;;;;;5050684;28;19925;-81
2023/08/02 06:31:47;;;;;;;;;;;16.50;99.90;;;;;;5016594;28;19933;-81
2023/08/02 06:34:12;;;;;;;;;;;16.50;99.90;;;;;;5031575;28;19948;-80
2023/08/02 06:36:42;;;;;;;;;;;16.50;99.90;;;;;;5028906;28;19926;-81
2023/08/02 06:39:08;;;;;;;;;;;16.40;99.90;;;;;;5007280;28;19987;-80
2023/08/02 06:41:33;;;;;;;;;;;16.30;99.90;;;;;;5006042;28;20428;-80
2023/08/02 06:44:00;;;;;;;;;;;16.30;99.90;;;;;;5006997;28;20406;-80
2023/08/02 06:46:26;;;;;;;;;;;16.20;99.90;;;;;;5009415;28;20274;-81
2023/08/02 06:48:52;;;;;;;;;;;16.20;99.90;;;;;;5022477;28;19929;-81
2023/08/02 06:51:18;;;;;;;;;;;16.10;99.90;;;;;;5031060;28;19956;-81
2023/08/02 06:53:43;;;;;;;;;;;16.10;99.90;;;;;;5036790;28;20431;-81
2023/08/02 06:56:13;;;;;;;;;;;16.10;99.90;;;;;;5007704;28;19964;-80
2023/08/02 06:58:39;;;;;;;;;;;16.10;99.90;;;;;;5044561;28;20401;-81
2023/08/02 07:01:11;;;;;;;;;;;16.10;99.90;;;;;;5042124;28;19964;-81
2023/08/02 07:03:39;;;;;;;;;;;16.00;99.90;;;;;;5051790;28;20323;-82
2023/08/02 07:06:08;;;;;;;;;;;16.10;99.90;;;;;;5001162;28;19992;-81
2023/08/02 07:08:34;;;;;;;;;;;16.00;99.90;;;;;;5037625;28;19940;-82
2023/08/02 07:11:00;;;;;;;;;;;16.00;99.90;;;;;;5036394;28;19925;-82
2023/08/02 07:13:29;;;;;;;;;;;16.00;99.90;;;;;;5030103;28;19932;-82
2023/08/02 07:15:55;;;;;;;;;;;15.90;99.90;;;;;;5034282;28;20413;-81
2023/08/02 07:18:21;;;;;;;;;;;15.90;99.90;;;;;;5006141;28;19935;-80
2023/08/02 07:20:46;;;;;;;;;;;15.90;99.90;;;;;;5046751;28;19925;-78
2023/08/02 07:23:12;;;;;;;;;;;15.80;99.90;;;;;;5039581;28;19937;-79
2023/08/02 07:25:37;;;;;;;;;;;15.80;99.90;;;;;;5038108;28;19932;-82
2023/08/02 07:28:03;;;;;;;;;;;15.80;99.90;;;;;;5026069;28;19929;-83
2023/08/02 07:30:28;;;;;;;;;;;15.70;99.90;;;;;;5027036;28;19925;-82
2023/08/02 07:32:54;;;;;;;;;;;15.70;99.90;;;;;;5021706;28;20280;-82
2023/08/02 07:35:20;;;;;;;;;;;15.70;99.90;;;;;;5039322;28;19936;-83
2023/08/02 07:37:45;;;;;;;;;;;15.60;99.90;;;;;;5020643;28;19925;-83
2023/08/02 07:40:13;;;;;;;;;;;15.60;99.90;;;;;;5018275;28;19925;-83
2023/08/02 07:42:38;;;;;;;;;;;15.50;99.90;;;;;;5038396;28;19936;-82
2023/08/02 07:45:06;;;;;;;;;;;15.50;99.90;;;;;;5050539;28;19949;-82
2023/08/02 07:47:32;;;;;;;;;;;15.50;99.90;;;;;;5020530;28;19925;-82
2023/08/02 07:49:58;;;;;;;;;;;15.50;99.90;;;;;;5016253;28;19932;-82
2023/08/02 07:52:23;;;;;;;;;;;15.40;99.90;;;;;;5066498;28;19929;-82
2023/08/02 07:54:51;;;;;;;;;;;15.40;99.90;;;;;;5062255;28;19933;-82
2023/08/02 07:57:16;;;;;;;;;;;15.40;99.90;;;;;;5036648;28;19932;-83
2023/08/02 07:59:42;;;;;;;;;;;15.40;99.90;;;;;;5022395;28;19925;-83
2023/08/02 08:02:08;;;;;;;;;;;15.30;99.90;;;;;;5001465;28;19925;-84
2023/08/02 08:04:33;;;;;;;;;;;15.40;99.90;;;;;;5036032;28;19972;-82
2023/08/02 08:06:59;;;;;;;;;;;15.30;99.90;;;;;;5008435;28;19933;-84
2023/08/02 08:09:24;;;;;;;;;;;15.30;99.90;;;;;;5047529;28;19960;-82
2023/08/02 08:11:50;;;;;;;;;;;15.40;99.90;;;;;;5002979;28;19967;-82
2023/08/02 08:14:15;;;;;;;;;;;15.40;99.90;;;;;;5011610;28;19970;-83
2023/08/02 08:16:41;;;;;;;;;;;15.40;99.90;;;;;;5028985;28;19934;-83
2023/08/02 08:19:07;;;;;;;;;;;15.50;99.90;;;;;;5044328;28;19929;-84
2023/08/02 08:21:32;;;;;;;;;;;15.50;99.90;;;;;;5064272;28;21900;-83
2023/08/02 08:23:58;;;;;;;;;;;15.50;99.90;;;;;;5033395;28;19956;-82
2023/08/02 08:26:29;;;;;;;;;;;15.60;99.90;;;;;;5034054;28;19936;-83
2023/08/02 08:28:55;;;;;;;;;;;15.60;99.90;;;;;;5049120;28;19997;-83
2023/08/02 08:31:20;;;;;;;;;;;15.70;99.90;;;;;;5049839;28;20390;-83
2023/08/02 08:33:46;;;;;;;;;;;15.80;99.90;;;;;;5018912;28;20566;-82
2023/08/02 08:36:14;;;;;;;;;;;15.90;99.90;;;;;;5038258;28;20304;-83
2023/08/02 08:38:40;;;;;;;;;;;16.00;99.90;;;;;;5044371;28;20266;-82
2023/08/02 08:41:06;;;;;;;;;;;16.10;99.90;;;;;;5017455;28;19972;-82
2023/08/02 08:43:33;;;;;;;;;;;16.10;99.90;;;;;;5035304;28;20479;-82
2023/08/02 08:45:59;;;;;;;;;;;16.20;99.90;;;;;;5033052;28;19925;-82
2023/08/02 08:48:26;;;;;;;;;;;16.20;99.90;;;;;;5064195;28;19985;-83
2023/08/02 08:50:54;;;;;;;;;;;16.20;99.90;;;;;;5032927;28;20353;-83
2023/08/02 08:53:22;;;;;;;;;;;16.10;99.90;;;;;;5026699;28;19929;-83
2023/08/02 08:55:49;;;;;;;;;;;16.10;99.90;;;;;;5033869;28;19925;-85
2023/08/02 08:58:15;;;;;;;;;;;16.00;99.90;;;;;;5033776;28;19929;-83
2023/08/02 09:00:42;;;;;;;;;;;16.00;99.90;;;;;;5049835;28;20031;-85
2023/08/02 09:03:09;;;;;;;;;;;15.90;99.90;;;;;;5034008;28;19925;-84
2023/08/02 09:05:35;;;;;;;;;;;15.90;99.90;;;;;;5035946;28;20258;-84
2023/08/02 09:08:00;;;;;;;;;;;15.80;99.90;;;;;;5034818;28;19940;-81
2023/08/02 09:10:26;;;;;;;;;;;15.80;99.90;;;;;;5036650;28;19981;-82
2023/08/02 09:12:52;;;;;;;;;;;15.80;99.90;;;;;;5027438;28;19933;-84
2023/08/02 09:15:17;;;;;;;;;;;15.90;99.90;;;;;;5052292;28;19931;-83
2023/08/02 09:17:45;;;;;;;;;;;16.00;99.90;;;;;;5037580;28;19983;-83
2023/08/02 09:20:11;;;;;;;;;;;16.10;99.90;;;;;;5069609;28;20012;-83
2023/08/02 09:22:36;;;;;;;;;;;16.20;99.90;;;;;;5036551;28;19972;-80
2023/08/02 09:25:04;;;;;;;;;;;16.20;99.90;;;;;;5035617;28;19925;-80
2023/08/02 09:27:30;;;;;;;;;;;16.30;99.90;;;;;;5040634;28;19929;-80
2023/08/02 09:29:56;;;;;;;;;;;16.30;99.90;;;;;;5025418;28;20023;-80
2023/08/02 09:32:22;;;;;;;;;;;16.30;99.90;;;;;;5038339;28;19933;-80
2023/08/02 09:34:50;;;;;;;;;;;16.40;99.90;;;;;;5042209;28;19929;-78
2023/08/02 09:37:16;;;;;;;;;;;16.30;99.90;;;;;;5038301;28;19925;-79
2023/08/02 09:39:51;;;;;;;;;;;16.40;99.90;;;;;;5025136;28;19925;-79
2023/08/02 09:42:20;;;;;;;;;;;16.30;99.90;;;;;;5039982;28;19936;-80
2023/08/02 09:44:55;;;;;;;;;;;16.40;99.90;;;;;;5038428;28;19964;-80
2023/08/02 09:47:21;;;;;;;;;;;16.40;99.90;;;;;;5036944;28;19948;-80
2023/08/02 09:50:05;;;;;;;;;;;16.40;99.90;;;;;;5040629;28;19925;-82
2023/08/02 09:52:31;;;;;;;;;;;16.50;99.90;;;;;;5041319;28;20436;-81
2023/08/02 09:54:57;;;;;;;;;;;16.50;99.90;;;;;;5039308;28;19924;-81
2023/08/02 09:57:26;;;;;;;;;;;16.50;99.90;;;;;;5041584;28;19933;-81
2023/08/02 09:59:58;;;;;;;;;;;16.60;99.90;;;;;;5040851;28;20396;-80
2023/08/02 10:02:25;;;;;;;;;;;16.50;99.90;;;;;;5024112;28;19925;-80
2023/08/02 10:04:55;;;;;;;;;;;16.60;99.90;;;;;;5040103;28;19968;-82
2023/08/02 10:07:23;;;;;;;;;;;16.60;99.90;;;;;;5023793;28;19936;-80
2023/08/02 10:09:49;;;;;;;;;;;16.60;99.90;;;;;;5041159;28;19925;-79
2023/08/02 10:12:18;;;;;;;;;;;16.70;99.90;;;;;;5040750;28;19929;-79
2023/08/02 10:14:43;;;;;;;;;;;16.60;99.90;;;;;;5038883;28;19929;-80
2023/08/02 10:17:10;;;;;;;;;;;16.70;99.90;;;;;;5029021;28;20013;-81
2023/08/02 10:19:36;;;;;;;;;;;16.70;99.90;;;;;;5068271;28;19983;-82
2023/08/02 10:22:05;;;;;;;;;;;16.80;99.90;;;;;;5024969;28;19936;-82
2023/08/02 10:24:31;;;;;;;;;;;16.80;99.90;;;;;;5038580;28;20452;-81
2023/08/02 10:26:58;;;;;;;;;;;16.80;99.90;;;;;;5022106;28;20356;-82
2023/08/02 10:29:25;;;;;;;;;;;16.80;99.90;;;;;;5038007;28;19928;-82
2023/08/02 10:31:51;;;;;;;;;;;16.80;99.90;;;;;;5038407;28;19951;-82
2023/08/02 10:34:35;;;;;;;;;;;16.80;99.90;;;;;;5004241;28;20295;-82
2023/08/02 10:37:00;;;;;;;;;;;16.80;99.90;;;;;;5065775;28;19992;-83
2023/08/02 10:39:44;;;;;;;;;;;16.80;99.90;;;;;;5036252;28;20018;-82
2023/08/02 10:42:10;;;;;;;;;;;16.80;99.90;;;;;;5015901;28;19952;-84
2023/08/02 10:44:36;;;;;;;;;;;16.80;99.90;;;;;;5016702;28;20383;-82
2023/08/02 10:47:20;;;;;;;;;;;16.80;99.90;;;;;;5019628;28;19934;-82
2023/08/02 10:49:46;;;;;;;;;;;16.80;99.90;;;;;;5062654;28;19972;-82
2023/08/02 10:52:25;;;;;;;;;;;16.80;99.90;;;;;;5036081;28;19925;-81
2023/08/02 10:55:10;;;;;;;;;;;16.90;99.90;;;;;;5064817;28;19925;-81
2023/08/02 10:57:36;;;;;;;;;;;17.00;99.90;;;;;;5034880;28;20394;-82
2023/08/02 11:00:14;;;;;;;;;;;17.00;99.90;;;;;;5047373;28;19943;-82
2023/08/02 11:02:44;;;;;;;;;;;17.10;99.90;;;;;;5035393;28;20403;-81
2023/08/02 11:05:10;;;;;;;;;;;17.10;99.90;;;;;;5051196;28;20031;-83
2023/08/02 11:07:35;;;;;;;;;;;17.10;99.90;;;;;;5036274;28;20420;-81
2023/08/02 11:10:04;;;;;;;;;;;17.10;99.90;;;;;;5052167;28;19944;-81
2023/08/02 11:12:32;;;;;;;;;;;17.20;99.90;;;;;;5037478;28;20020;-81
2023/08/02 11:14:57;;;;;;;;;;;17.20;99.90;;;;;;5067027;28;19987;-82
2023/08/02 11:17:23;;;;;;;;;;;17.40;99.90;;;;;;5039322;28;19929;-80
2023/08/02 11:19:50;;;;;;;;;;;17.60;99.90;;;;;;5019055;28;19941;-81
2023/08/02 11:22:15;;;;;;;;;;;17.80;99.90;;;;;;5039131;28;19940;-82
2023/08/02 11:24:51;;;;;;;;;;;18.00;99.90;;;;;;5067866;28;19925;-81
2023/08/02 11:27:17;;;;;;;;;;;18.30;99.90;;;;;;5021526;28;19932;-81
2023/08/02 11:29:59;;;;;;;;;;;18.70;99.90;;;;;;5053224;28;19937;-81
2023/08/02 11:32:25;;;;;;;;;;;19.10;99.90;;;;;;5062755;28;19936;-81
2023/08/02 11:34:51;;;;;;;;;;;19.60;99.90;;;;;;5032435;28;19956;-80
2023/08/02 11:37:17;;;;;;;;;;;19.90;99.90;;;;;;5035561;28;19960;-82
2023/08/02 11:39:50;;;;;;;;;;;20.30;99.90;;;;;;5021809;28;20332;-82
2023/08/02 11:42:15;;;;;;;;;;;20.70;99.90;;;;;;5021125;28;19932;-82
2023/08/02 11:44:42;;;;;;;;;;;20.90;99.90;;;;;;5040590;28;19925;-82
2023/08/02 11:47:08;;;;;;;;;;;20.90;99.90;;;;;;5038800;28;19991;-81
2023/08/02 11:49:46;;;;;;;;;;;21.10;99.90;;;;;;5035417;28;19937;-83
2023/08/02 11:52:12;;;;;;;;;;;21.20;99.90;;;;;;5056373;28;19925;-81
2023/08/02 11:54:37;;;;;;;;;;;21.30;99.90;;;;;;5054968;28;19948;-76
2023/08/02 11:57:03;;;;;;;;;;;21.50;99.90;;;;;;5039183;28;20325;-77
2023/08/02 11:59:29;;;;;;;;;;;21.70;99.90;;;;;;5038732;28;19992;-76
2023/08/02 12:01:54;;;;;;;;;;;21.80;99.90;;;;;;5036439;28;19933;-77
2023/08/02 12:04:20;;;;;;;;;;;22.00;99.90;;;;;;5038864;28;19931;-75
2023/08/02 12:06:46;;;;;;;;;;;22.10;99.90;;;;;;5039447;28;19929;-75
2023/08/02 12:09:12;;;;;;;;;;;22.20;99.90;;;;;;5037620;28;19964;-78
2023/08/02 12:11:38;;;;;;;;;;;22.30;99.90;;;;;;5019802;28;19925;-78
2023/08/02 12:14:06;;;;;;;;;;;22.20;99.90;;;;;;5039668;28;19960;-78
2023/08/02 12:16:44;;;;;;;;;;;22.20;99.90;;;;;;5038339;28;19958;-78
2023/08/02 12:19:10;;;;;;;;;;;22.20;99.90;;;;;;5033916;28;19932;-78
2023/08/02 12:21:36;;;;;;;;;;;22.40;99.90;;;;;;5037668;28;19931;-80
2023/08/02 12:24:11;;;;;;;;;;;22.40;99.90;;;;;;5021419;28;19984;-77
2023/08/02 12:26:36;;;;;;;;;;;22.40;99.90;;;;;;5040694;28;19925;-78
2023/08/02 12:29:02;;;;;;;;;;;22.40;99.90;;;;;;5018373;28;19933;-76
2023/08/02 12:31:28;;;;;;;;;;;22.50;99.90;;;;;;5018394;28;19983;-77
2023/08/02 12:33:54;;;;;;;;;;;22.70;99.90;;;;;;5051377;28;19925;-77
2023/08/02 12:36:26;;;;;;;;;;;22.90;99.90;;;;;;5036952;28;19932;-77
2023/08/02 12:38:52;;;;;;;;;;;23.20;99.90;;;;;;5039126;28;19925;-77
2023/08/02 12:41:18;;;;;;;;;;;23.50;99.90;;;;;;5037283;28;19952;-77
2023/08/02 12:43:43;;;;;;;;;;;23.70;99.90;;;;;;5039063;28;19925;-78
2023/08/02 12:46:09;;;;;;;;;;;23.90;99.90;;;;;;5037412;28;19932;-77
2023/08/02 12:48:34;;;;;;;;;;;23.90;99.90;;;;;;5047322;28;19967;-76
2023/08/02 12:51:00;;;;;;;;;;;23.90;99.90;;;;;;5038675;28;19925;-77
2023/08/02 12:53:25;;;;;;;;;;;23.90;99.90;;;;;;5029194;28;20024;-77
2023/08/02 12:55:51;;;;;;;;;;;23.80;99.90;;;;;;5031412;28;19926;-77
2023/08/02 12:58:16;;;;;;;;;;;23.60;99.90;;;;;;5037372;28;19925;-77
2023/08/02 13:00:42;;;;;;;;;;;23.40;99.90;;;;;;5041702;28;19979;-77
2023/08/02 13:03:09;;;;;;;;;;;23.30;99.90;;;;;;5042842;28;20398;-78
2023/08/02 13:05:35;;;;;;;;;;;23.20;99.90;;;;;;5046633;28;19982;-78
2023/08/02 13:08:00;;;;;;;;;;;23.10;99.90;;;;;;5043204;28;19995;-78
2023/08/02 13:10:26;;;;;;;;;;;23.00;99.90;;;;;;5037190;28;19968;-77
2023/08/02 13:12:52;;;;;;;;;;;23.20;99.90;;;;;;5042920;28;19952;-77
2023/08/02 13:15:17;;;;;;;;;;;23.20;99.90;;;;;;5039588;28;19925;-78
2023/08/02 13:17:46;;;;;;;;;;;23.30;99.90;;;;;;5037702;28;19925;-78
2023/08/02 13:20:13;;;;;;;;;;;23.40;99.90;;;;;;5027592;28;19984;-78
2023/08/02 13:22:39;;;;;;;;;;;23.70;99.90;;;;;;5042188;28;19929;-79
2023/08/02 13:25:05;;;;;;;;;;;23.90;99.90;;;;;;5037569;28;20024;-76
2023/08/02 13:27:33;;;;;;;;;;;24.00;99.90;;;;;;5071218;28;19936;-78
2023/08/02 13:30:02;;;;;;;;;;;23.90;99.90;;;;;;5041266;28;19937;-75
2023/08/02 13:32:34;;;;;;;;;;;23.90;99.90;;;;;;5040723;28;19925;-77
2023/08/02 13:35:00;;;;;;;;;;;24.10;99.90;;;;;;5025349;28;19926;-77
2023/08/02 13:37:25;;;;;;;;;;;24.00;99.90;;;;;;5026150;28;19929;-76
2023/08/02 13:39:51;;;;;;;;;;;23.80;99.90;;;;;;5023735;28;19968;-78
2023/08/02 13:42:17;;;;;;;;;;;23.60;99.90;;;;;;5040808;28;20380;-78
2023/08/02 13:44:42;;;;;;;;;;;23.60;99.90;;;;;;5039263;28;19985;-79
2023/08/02 13:47:08;;;;;;;;;;;23.60;99.90;;;;;;5024900;28;19925;-77
2023/08/02 13:49:34;;;;;;;;;;;23.50;99.90;;;;;;5039930;28;19993;-78
2023/08/02 13:51:59;;;;;;;;;;;23.30;99.90;;;;;;5041738;28;19925;-77
2023/08/02 13:54:25;;;;;;;;;;;23.10;99.90;;;;;;5057032;28;19932;-78
2023/08/02 13:56:50;;;;;;;;;;;23.00;99.90;;;;;;5025114;28;20400;-75
2023/08/02 13:59:16;;;;;;;;;;;23.00;99.90;;;;;;5039866;28;19925;-79
2023/08/02 14:01:41;;;;;;;;;;;23.00;99.90;;;;;;5074579;28;19925;-78
2023/08/02 14:04:07;;;;;;;;;;;23.20;99.90;;;;;;5041424;28;19945;-75
2023/08/02 14:06:34;;;;;;;;;;;23.20;99.90;;;;;;5040228;28;19932;-78
2023/08/02 14:08:59;;;;;;;;;;;23.30;99.90;;;;;;5057626;28;19981;-79
2023/08/02 14:11:25;;;;;;;;;;;23.30;99.90;;;;;;5041851;28;19971;-83
2023/08/02 14:13:51;;;;;;;;;;;23.30;99.90;;;;;;5041694;28;19965;-82
2023/08/02 14:16:16;;;;;;;;;;;23.30;99.90;;;;;;5032176;28;19936;-77
2023/08/02 14:18:42;;;;;;;;;;;23.50;99.90;;;;;;5039828;28;19933;-79